Terminal Aerodrome Forecast
Issued by NWS

Home | Current Version | Previous Version | Text Only | Print | Product List | Glossary On
Versions: 1 2 3 4 5 6 7 8 9 10 11 12 13 14 15 16 17 18 19 20 21 22 23 24
000
FTUS43 KABR 281725
TAFMBG
TAF
KMBG 281725Z 2818/2918 06007KT P6SM SCT045 OVC080
     FM290600 08006KT P6SM SCT110
     FM291000 09005KT P6SM SCT070
     FM291500 15009KT P6SM SCT090=

USA.gov is the U.S. government's official web portal to all federal, state and local government web resources and services.